< Typhoon 197620 1976 Season Typhoon 197622 >
Typhoon 197621 (JOAN)
General InformationTrack Information on Google Maps || Disaster Info.ResourceGoogle EarthGE AnimationAtom FeedGeoJSON
Detalied Best Track (Time Zone = UTC)
Year Month Day Hour Lat. Long. Pressure (hPa) Wind (kt) Class Image Chart
1976 9 18 00 14.0 151.0 1004 0 2 -- Chart
1976 9 18 06 14.5 150.8 1004 0 2 -- Chart
1976 9 18 12 14.9 150.8 1004 0 2 -- Chart
1976 9 18 18 15.3 150.7 1004 0 2 -- Chart
1976 9 19 00 15.8 150.7 1000 0 2 -- Chart
1976 9 19 06 17.0 151.6 1002 0 2 -- Chart
1976 9 19 12 18.0 152.0 1002 0 2 -- Chart
1976 9 19 18 19.0 152.0 1000 0 2 -- Chart
1976 9 20 00 20.0 151.8 1000 0 9 -- Chart
1976 9 20 06 20.9 151.7 998 0 9 -- Chart
1976 9 20 12 21.9 151.7 994 0 9 -- Chart
1976 9 20 18 22.9 151.7 990 0 9 -- Chart
1976 9 21 00 23.9 151.7 980 0 9 -- Chart
1976 9 21 06 24.5 151.5 970 0 9 -- Chart
1976 9 21 12 25.5 151.5 965 0 9 -- Chart
1976 9 21 18 26.3 151.6 965 0 9 -- Chart
1976 9 22 00 27.0 151.9 970 0 9 -- Chart
1976 9 22 06 27.5 152.2 975 0 9 -- Chart
1976 9 22 12 28.3 153.0 980 0 9 -- Chart
1976 9 22 18 29.0 153.7 980 0 9 -- Chart
1976 9 23 00 29.6 154.2 980 0 9 -- Chart
1976 9 23 06 30.1 155.0 980 0 9 -- Chart
1976 9 23 12 31.0 156.0 980 0 9 -- Chart
1976 9 23 18 32.0 157.0 980 0 9 -- Chart
1976 9 24 00 33.7 158.6 980 0 9 -- Chart
1976 9 24 06 36.0 161.0 975 0 9 -- Chart
1976 9 24 12 38.7 165.0 975 0 9 -- Chart
1976 9 24 18 42.0 170.0 980 0 9 -- Chart
1976 9 25 00 45.0 176.0 984 0 6 -- Chart
1976 9 25 06 46.5 181.0 984 0 6 -- Chart
Japan Meteorological Agency Best Track Data | Correction Date : 1992-10-21
< Typhoon 197620 1976 Season Typhoon 197622 >

Help